Atlas, Michigan
Current Conditions -  °F | °C
As of 8:53 PM on Sunday 23 Nov 2014 (Local Time) from KFNT Reporting Station
Light Rain Light Rain  
Wind Chill: 51°   Ceiling: 8000
Heat Index: 51°   Visibility: 6mi
Dew Point: 46°   Wind: 14mph
Humidity: 83%   Direction: 140°SE
Pressure: 29.47"   Gusts: NA
Location:  42.94°N, 83.53°W
Report Text: KFNT 240153Z 14012KT 6SM -RA SCT050 OVC080 11/08 A2947 RMK AO2 SLP982 P0004 T01060078
Loading
Personal Weather Stations






























Interactive Weather Map New forecast layout! Learn more

10-Day Weather Forecast

Advertisements
Track Severe Weather on mobile